Time;durP1;ratioP1;P1;durP2;ratioP2;P2;SDS_P1;SDS_P2;PMS_P1;PMS_P2;Temp;Humidity;BMP_temperature;BMP_pressure;BME280_temperature;BME280_humidity;BME280_pressure;Samples;Min_cycle;Max_cycle;Signal;HPM_P1;HPM_P2
2022/01/15 00:00:52;;;;;;;17.30;8.30;;;3.80;99.90;;;;;;5075805;28;20052;-68
2022/01/15 00:03:19;;;;;;;18.15;8.93;;;3.80;99.90;;;;;;5059079;28;20023;-68
2022/01/15 00:05:47;;;;;;;17.75;8.55;;;3.80;99.90;;;;;;5076731;28;20051;-68
2022/01/15 00:08:14;;;;;;;17.65;9.02;;;3.80;99.90;;;;;;5075615;28;20046;-68
2022/01/15 00:10:42;;;;;;;18.25;8.25;;;3.80;99.90;;;;;;5076890;28;20031;-68
2022/01/15 00:13:17;;;;;;;17.85;8.18;;;3.80;99.90;;;;;;5075573;28;20031;-68
2022/01/15 00:15:51;;;;;;;18.70;7.95;;;3.80;99.90;;;;;;5077717;28;20436;-68
2022/01/15 00:18:29;;;;;;;15.23;7.50;;;3.80;99.90;;;;;;5089391;28;20075;-68
2022/01/15 00:20:57;;;;;;;16.25;8.07;;;3.80;99.90;;;;;;5097769;28;20273;-68
2022/01/15 00:23:24;;;;;;;17.17;8.13;;;3.70;99.90;;;;;;5097574;28;20024;-68
2022/01/15 00:25:51;;;;;;;16.45;8.20;;;3.80;99.90;;;;;;5097890;28;20016;-68
2022/01/15 00:28:19;;;;;;;15.82;7.28;;;3.80;99.90;;;;;;5097662;28;20371;-68
2022/01/15 00:30:46;;;;;;;18.90;8.48;;;3.70;99.90;;;;;;5079783;28;20082;-68
2022/01/15 00:33:14;;;;;;;15.15;7.35;;;3.70;99.90;;;;;;5063024;28;20120;-68
2022/01/15 00:35:42;;;;;;;13.25;7.45;;;3.80;99.90;;;;;;5096818;28;20021;-68
2022/01/15 00:38:09;;;;;;;15.45;7.65;;;3.80;99.90;;;;;;5096330;28;20032;-68
2022/01/15 00:40:36;;;;;;;15.98;7.95;;;3.80;99.90;;;;;;5078801;28;20034;-68
2022/01/15 00:43:04;;;;;;;16.25;8.02;;;3.80;99.90;;;;;;5096483;28;20077;-68
2022/01/15 00:45:33;;;;;;;16.73;7.43;;;3.80;99.90;;;;;;5096697;28;20404;-68
2022/01/15 00:48:02;;;;;;;15.70;7.90;;;3.80;99.90;;;;;;5082665;28;20047;-68
2022/01/15 00:50:29;;;;;;;15.23;8.25;;;3.80;99.90;;;;;;5100658;28;20027;-68
2022/01/15 00:52:57;;;;;;;16.08;8.20;;;3.80;99.90;;;;;;5100553;28;20028;-68
2022/01/15 00:55:24;;;;;;;18.20;8.35;;;3.80;99.90;;;;;;5100649;28;20157;-67
2022/01/15 00:57:52;;;;;;;17.88;8.15;;;3.80;99.90;;;;;;5101230;28;20054;-68
2022/01/15 01:00:24;;;;;;;16.08;8.07;;;3.80;99.90;;;;;;5083526;28;20016;-68
2022/01/15 01:02:51;;;;;;;19.33;8.48;;;3.80;99.90;;;;;;5101403;28;20412;-68
2022/01/15 01:05:20;;;;;;;19.95;8.30;;;3.80;99.90;;;;;;5066890;28;20103;-68
2022/01/15 01:07:48;;;;;;;22.27;9.13;;;3.80;99.90;;;;;;5101574;28;20032;-68
2022/01/15 01:23:41;;;;;;;15.57;8.50;;;3.80;99.90;;;;;;5099990;28;20039;-68
2022/01/15 01:26:23;;;;;;;17.23;8.35;;;3.80;99.90;;;;;;5081972;28;20044;-68
2022/01/15 01:31:57;;;;;;;14.95;7.88;;;3.80;99.90;;;;;;5068322;28;20035;-68
2022/01/15 01:34:28;;;;;;;13.70;6.95;;;3.80;99.90;;;;;;5083926;28;20024;-68
2022/01/15 01:37:15;;;;;;;17.00;8.15;;;3.80;99.90;;;;;;5099652;28;20038;-68
2022/01/15 01:39:48;;;;;;;14.75;7.03;;;3.80;99.90;;;;;;5100133;28;20020;-68
2022/01/15 01:45:08;;;;;;;14.90;7.07;;;3.80;99.90;;;;;;5100697;28;20346;-68
2022/01/15 01:47:40;;;;;;;15.75;7.97;;;3.80;99.90;;;;;;5100726;28;20020;-68
2022/01/15 01:50:21;;;;;;;15.95;8.05;;;3.80;99.90;;;;;;5100785;28;20032;-68
2022/01/15 01:52:52;;;;;;;16.52;7.60;;;3.80;99.90;;;;;;5101016;28;20353;-68
2022/01/15 01:55:22;;;;;;;17.98;8.27;;;3.80;99.90;;;;;;5100425;28;20408;-68
2022/01/15 01:57:51;;;;;;;15.20;7.70;;;3.80;99.90;;;;;;5099868;28;20036;-68
2022/01/15 02:00:20;;;;;;;18.25;8.15;;;3.70;99.90;;;;;;5099064;28;20073;-68
2022/01/15 02:02:49;;;;;;;15.95;7.97;;;3.80;99.90;;;;;;5081577;28;20028;-68
2022/01/15 02:05:16;;;;;;;19.75;8.43;;;3.70;99.90;;;;;;5099295;28;20438;-68
2022/01/15 02:07:45;;;;;;;18.85;9.02;;;3.80;99.90;;;;;;5099178;28;20112;-68
2022/01/15 02:10:16;;;;;;;21.02;8.80;;;3.80;99.90;;;;;;5099222;28;20427;-68
2022/01/15 02:12:45;;;;;;;22.75;9.50;;;3.80;99.90;;;;;;5099913;28;20024;-68
2022/01/15 02:15:17;;;;;;;20.05;8.93;;;3.80;99.90;;;;;;5099032;28;20043;-68
2022/01/15 02:17:46;;;;;;;21.77;8.90;;;3.80;99.90;;;;;;5098979;28;20043;-68
2022/01/15 02:25:59;;;;;;;21.55;9.48;;;3.80;99.90;;;;;;5100162;28;20465;-68
2022/01/15 02:28:30;;;;;;;26.10;9.48;;;3.80;99.90;;;;;;5100326;28;20215;-68
2022/01/15 02:31:07;;;;;;;24.23;9.63;;;3.80;99.90;;;;;;5099959;28;20028;-68
2022/01/15 02:33:35;;;;;;;21.55;8.82;;;3.80;99.90;;;;;;5099730;28;20331;-68
2022/01/15 02:36:05;;;;;;;21.98;9.60;;;3.80;99.90;;;;;;5099666;28;20038;-68
2022/01/15 02:38:33;;;;;;;25.92;10.40;;;3.80;99.90;;;;;;5099818;28;20020;-68
2022/01/15 02:41:00;;;;;;;26.27;10.18;;;3.80;99.90;;;;;;5081259;28;20069;-68
2022/01/15 02:43:34;;;;;;;19.45;9.40;;;3.80;99.90;;;;;;5098457;28;20446;-68
2022/01/15 02:46:19;;;;;;;29.65;10.98;;;3.80;99.90;;;;;;5081701;28;20088;-68
2022/01/15 02:48:52;;;;;;;26.35;10.70;;;3.80;99.90;;;;;;5098249;28;20070;-68
2022/01/15 02:51:22;;;;;;;24.88;10.23;;;3.80;99.90;;;;;;5080628;28;20035;-68
2022/01/15 02:53:54;;;;;;;23.30;10.82;;;3.80;99.90;;;;;;5098210;28;20085;-68
2022/01/15 02:56:33;;;;;;;36.13;13.55;;;3.80;99.90;;;;;;5080693;28;20324;-68
2022/01/15 02:59:03;;;;;;;29.23;11.15;;;3.80;99.90;;;;;;5098793;28;20095;-68
2022/01/15 03:01:31;;;;;;;30.40;11.48;;;3.80;99.90;;;;;;5098123;28;20046;-68
2022/01/15 03:03:58;;;;;;;39.60;13.23;;;3.80;99.90;;;;;;5098657;28;20469;-68
2022/01/15 03:06:25;;;;;;;34.15;11.68;;;3.80;99.90;;;;;;5099700;28;20024;-68
2022/01/15 03:08:53;;;;;;;32.95;12.27;;;3.80;99.90;;;;;;5081042;28;20032;-68
2022/01/15 03:11:22;;;;;;;36.70;12.10;;;3.70;99.90;;;;;;5098777;28;20024;-68
2022/01/15 03:13:49;;;;;;;35.83;11.65;;;3.80;99.90;;;;;;5081142;28;20328;-68
2022/01/15 03:16:19;;;;;;;33.25;12.60;;;3.80;99.90;;;;;;5098801;28;20039;-68
2022/01/15 03:18:47;;;;;;;33.90;11.90;;;3.70;99.90;;;;;;5077087;28;20044;-68
2022/01/15 03:21:15;;;;;;;38.00;13.65;;;3.70;99.90;;;;;;5079095;28;20028;-68
2022/01/15 03:23:43;;;;;;;36.53;12.23;;;3.80;99.90;;;;;;5077895;28;20419;-68
2022/01/15 03:26:13;;;;;;;40.25;13.77;;;3.70;99.90;;;;;;5077539;28;20337;-68
2022/01/15 03:28:41;;;;;;;40.08;12.93;;;3.70;99.90;;;;;;5077360;28;20113;-68
2022/01/15 03:31:09;;;;;;;35.75;13.02;;;3.70;99.90;;;;;;5077320;28;20021;-68
2022/01/15 03:33:37;;;;;;;49.92;15.52;;;3.70;99.90;;;;;;5077315;28;20119;-68
2022/01/15 03:36:04;;;;;;;56.38;15.27;;;3.70;99.90;;;;;;5076562;28;20049;-68
2022/01/15 03:38:32;;;;;;;41.22;14.82;;;3.70;99.90;;;;;;5076174;28;20068;-68
2022/01/15 03:41:00;;;;;;;50.38;15.93;;;3.80;99.90;;;;;;5076185;28;20024;-68
2022/01/15 03:43:28;;;;;;;44.90;14.20;;;3.70;99.90;;;;;;5077430;28;20385;-68
2022/01/15 03:45:55;;;;;;;43.00;14.70;;;3.70;99.90;;;;;;5077526;28;20017;-68
2022/01/15 03:48:22;;;;;;;48.83;15.05;;;3.70;99.90;;;;;;5076888;28;20028;-68
2022/01/15 03:50:49;;;;;;;47.95;15.63;;;3.70;99.90;;;;;;5078534;28;20020;-68
2022/01/15 03:53:16;;;;;;;43.58;14.35;;;3.70;99.90;;;;;;5076813;28;20424;-68
2022/01/15 03:55:44;;;;;;;39.28;13.73;;;3.70;99.90;;;;;;5077011;28;20457;-68
2022/01/15 03:58:11;;;;;;;39.85;11.88;;;3.80;99.90;;;;;;5077710;28;20020;-68
2022/01/15 04:00:38;;;;;;;48.05;15.23;;;3.70;99.90;;;;;;5077889;28;20017;-68
2022/01/15 04:03:06;;;;;;;49.28;15.80;;;3.70;99.90;;;;;;5076710;28;20024;-68
2022/01/15 04:05:34;;;;;;;55.22;15.93;;;3.70;99.90;;;;;;5077897;28;20329;-68
2022/01/15 04:08:01;;;;;;;51.95;13.18;;;3.70;99.90;;;;;;5077015;28;20021;-68
2022/01/15 04:10:28;;;;;;;52.60;16.05;;;3.70;99.90;;;;;;5076809;28;20120;-68
2022/01/15 04:12:56;;;;;;;57.33;15.32;;;3.70;99.90;;;;;;5076704;28;20027;-68
2022/01/15 04:15:25;;;;;;;55.20;15.10;;;3.70;99.90;;;;;;5077744;28;20368;-68
2022/01/15 04:17:52;;;;;;;52.75;15.25;;;3.70;99.90;;;;;;5082426;28;20050;-68
2022/01/15 04:20:22;;;;;;;51.35;14.93;;;3.70;99.90;;;;;;5096797;28;20427;-68
2022/01/15 04:22:52;;;;;;;58.13;15.38;;;3.70;99.90;;;;;;5095899;28;20030;-68
2022/01/15 04:25:20;;;;;;;54.95;14.85;;;3.70;99.90;;;;;;5096619;28;20020;-68
2022/01/15 04:27:48;;;;;;;57.25;14.95;;;3.70;99.90;;;;;;5097183;28;20024;-68
2022/01/15 04:30:17;;;;;;;53.42;15.13;;;3.70;99.90;;;;;;5097528;28;20447;-68
2022/01/15 04:32:44;;;;;;;64.88;15.10;;;3.70;99.90;;;;;;5079742;28;20024;-68
2022/01/15 04:35:12;;;;;;;53.88;13.70;;;3.70;99.90;;;;;;5079626;28;20027;-68
2022/01/15 04:37:47;;;;;;;55.85;13.75;;;3.70;99.90;;;;;;5079821;28;20028;-68
2022/01/15 04:40:16;;;;;;;56.20;14.87;;;3.70;99.90;;;;;;5097642;28;20055;-68
2022/01/15 04:42:44;;;;;;;53.95;15.65;;;3.70;99.90;;;;;;5097824;28;20024;-68
2022/01/15 04:45:12;;;;;;;59.97;15.32;;;3.70;99.90;;;;;;5097422;28;20047;-68
2022/01/15 04:47:40;;;;;;;48.95;15.40;;;3.70;99.90;;;;;;5079696;28;20024;-68
2022/01/15 04:50:10;;;;;;;50.55;14.00;;;3.70;99.90;;;;;;5096907;28;20024;-68
2022/01/15 04:52:38;;;;;;;51.70;14.57;;;3.70;99.90;;;;;;5078517;28;20473;-68
2022/01/15 04:55:07;;;;;;;47.83;14.07;;;3.70;99.90;;;;;;5096999;28;20051;-68
2022/01/15 04:57:34;;;;;;;54.15;14.73;;;3.70;99.90;;;;;;5096886;28;20414;-68
2022/01/15 05:00:02;;;;;;;55.67;13.57;;;3.70;99.90;;;;;;5078477;28;20439;-68
2022/01/15 05:02:30;;;;;;;47.97;13.32;;;3.70;99.90;;;;;;5096389;28;20048;-67
2022/01/15 05:04:57;;;;;;;51.38;14.05;;;3.70;99.90;;;;;;5078431;28;20016;-68
2022/01/15 05:07:24;;;;;;;47.33;13.25;;;3.70;99.90;;;;;;5078314;28;20120;-68
2022/01/15 05:09:51;;;;;;;38.25;11.40;;;3.70;99.90;;;;;;5078557;28;20391;-68
2022/01/15 05:12:31;;;;;;;50.67;15.13;;;3.70;99.90;;;;;;5097144;28;20055;-68
2022/01/15 05:15:00;;;;;;;43.80;12.55;;;3.70;99.90;;;;;;5081502;28;20534;-68
2022/01/15 05:17:27;;;;;;;43.17;14.25;;;3.70;99.90;;;;;;5096816;28;20036;-68
2022/01/15 05:19:54;;;;;;;41.15;13.45;;;3.70;99.90;;;;;;5097695;28;20020;-68
2022/01/15 05:22:22;;;;;;;42.10;12.60;;;3.70;99.90;;;;;;5097144;28;20348;-68
2022/01/15 05:24:49;;;;;;;43.72;12.43;;;3.70;99.90;;;;;;5097298;28;20408;-68
2022/01/15 05:27:16;;;;;;;40.05;13.23;;;3.70;99.90;;;;;;5079308;28;20032;-68
2022/01/15 05:29:45;;;;;;;40.72;13.27;;;3.70;99.90;;;;;;5097092;28;20020;-68
2022/01/15 05:32:12;;;;;;;42.67;13.57;;;3.70;99.90;;;;;;5079599;28;20034;-68
2022/01/15 05:34:39;;;;;;;41.45;12.45;;;3.70;99.90;;;;;;5100474;28;20077;-68
2022/01/15 05:37:06;;;;;;;42.88;13.82;;;3.70;99.90;;;;;;5082001;28;20028;-68
2022/01/15 05:39:34;;;;;;;44.75;13.40;;;3.70;99.90;;;;;;5081925;28;20073;-68
2022/01/15 05:42:01;;;;;;;38.17;12.95;;;3.70;99.90;;;;;;5081833;28;20016;-68
2022/01/15 05:44:28;;;;;;;35.65;11.75;;;3.70;99.90;;;;;;5082175;28;20023;-68
2022/01/15 05:46:55;;;;;;;48.47;15.35;;;3.70;99.90;;;;;;5081882;28;20366;-68
2022/01/15 05:49:22;;;;;;;37.88;12.10;;;3.70;99.90;;;;;;5099806;28;20416;-68
2022/01/15 05:51:49;;;;;;;31.55;12.40;;;3.70;99.90;;;;;;5099620;28;20035;-68
2022/01/15 05:54:16;;;;;;;34.90;12.65;;;3.70;99.90;;;;;;5100430;28;20020;-68
2022/01/15 05:56:44;;;;;;;34.10;12.80;;;3.70;99.90;;;;;;5083198;28;20020;-68
2022/01/15 05:59:11;;;;;;;36.78;11.48;;;3.70;99.90;;;;;;5082394;28;20055;-68
2022/01/15 06:01:38;;;;;;;33.20;11.50;;;3.70;99.90;;;;;;5082384;28;20305;-68
2022/01/15 06:04:06;;;;;;;38.75;13.02;;;3.70;99.90;;;;;;5100260;28;20027;-68
2022/01/15 06:06:33;;;;;;;31.92;11.50;;;3.70;99.90;;;;;;5066613;28;20408;-68
2022/01/15 06:09:02;;;;;;;35.00;12.40;;;3.70;99.90;;;;;;5065551;28;20028;-68
2022/01/15 06:11:31;;;;;;;31.90;12.60;;;3.70;99.90;;;;;;5100204;28;20031;-68
2022/01/15 06:13:58;;;;;;;26.23;10.65;;;3.70;99.90;;;;;;5081811;28;20032;-68
2022/01/15 06:16:25;;;;;;;34.25;11.75;;;3.70;99.90;;;;;;5099059;28;20119;-68
2022/01/15 06:18:53;;;;;;;38.42;12.07;;;3.70;99.90;;;;;;5077617;28;20040;-68
2022/01/15 06:21:21;;;;;;;34.60;12.75;;;3.70;99.90;;;;;;5079322;28;20016;-68
2022/01/15 06:23:48;;;;;;;31.48;12.23;;;3.70;99.90;;;;;;5078589;28;20036;-68
2022/01/15 06:26:15;;;;;;;33.35;12.05;;;3.70;99.90;;;;;;5078903;28;20028;-68
2022/01/15 06:28:42;;;;;;;32.05;11.40;;;3.70;99.90;;;;;;5078613;28;20416;-68
2022/01/15 06:31:09;;;;;;;40.03;13.05;;;3.70;99.90;;;;;;5078924;28;20320;-68
2022/01/15 06:33:37;;;;;;;32.97;12.05;;;3.70;99.90;;;;;;5077917;28;20021;-68
2022/01/15 06:36:05;;;;;;;34.40;12.00;;;3.70;99.90;;;;;;5078956;28;20455;-68
2022/01/15 06:38:32;;;;;;;37.38;13.07;;;3.70;99.90;;;;;;5079296;28;20424;-68
2022/01/15 06:40:59;;;;;;;32.63;12.23;;;3.70;99.90;;;;;;5078330;28;20105;-68
2022/01/15 06:43:26;;;;;;;41.88;13.80;;;3.70;99.90;;;;;;5078230;28;20027;-68
2022/01/15 06:45:54;;;;;;;34.30;12.20;;;3.70;99.90;;;;;;5077614;28;20016;-68
2022/01/15 06:48:22;;;;;;;37.38;12.73;;;3.70;99.90;;;;;;5079410;28;20051;-68
2022/01/15 06:50:49;;;;;;;32.40;12.00;;;3.80;99.90;;;;;;5079176;28;20412;-67
2022/01/15 06:53:16;;;;;;;32.80;12.02;;;3.80;99.90;;;;;;5079028;28;20054;-67
2022/01/15 06:55:49;;;;;;;33.47;11.20;;;3.80;99.90;;;;;;5061404;28;20024;-68
2022/01/15 06:58:16;;;;;;;31.17;11.77;;;3.80;99.90;;;;;;5077304;28;20020;-68
2022/01/15 07:00:43;;;;;;;36.35;12.63;;;3.80;99.90;;;;;;5060346;28;20020;-67
2022/01/15 07:03:11;;;;;;;39.72;13.85;;;3.80;99.90;;;;;;5076887;28;20017;-68
2022/01/15 07:05:38;;;;;;;29.15;10.82;;;3.80;99.90;;;;;;5060330;28;20138;-67
2022/01/15 07:08:06;;;;;;;36.20;12.13;;;3.80;99.90;;;;;;5077785;28;20025;-67
2022/01/15 07:10:34;;;;;;;29.08;11.43;;;3.80;99.90;;;;;;5077811;28;20070;-67
2022/01/15 07:13:01;;;;;;;37.83;12.13;;;3.80;99.90;;;;;;5077797;28;20367;-70
2022/01/15 07:15:29;;;;;;;36.55;12.52;;;3.80;99.90;;;;;;5077838;28;20036;-70
2022/01/15 07:17:59;;;;;;;34.47;12.65;;;3.80;99.90;;;;;;5083589;28;20131;-71
2022/01/15 07:20:27;;;;;;;33.05;12.40;;;3.80;99.90;;;;;;5098506;28;20054;-72
2022/01/15 07:22:55;;;;;;;35.92;12.93;;;3.80;99.90;;;;;;5098637;28;20074;-72
2022/01/15 07:25:22;;;;;;;34.78;11.95;;;3.80;99.90;;;;;;5099024;28;20017;-71
2022/01/15 07:27:49;;;;;;;30.95;12.10;;;3.80;99.90;;;;;;5081294;28;20102;-72
2022/01/15 07:30:16;;;;;;;29.33;11.98;;;3.80;99.90;;;;;;5098688;28;20031;-72
2022/01/15 07:32:45;;;;;;;37.83;13.60;;;3.80;99.90;;;;;;5081360;28;20293;-71
2022/01/15 07:35:12;;;;;;;36.30;13.20;;;3.80;99.90;;;;;;5098472;28;20028;-73
2022/01/15 07:37:39;;;;;;;32.70;11.30;;;3.80;99.90;;;;;;5098396;28;20028;-72
2022/01/15 07:40:08;;;;;;;36.28;14.07;;;3.80;99.90;;;;;;5097746;28;20016;-71
2022/01/15 07:42:37;;;;;;;36.25;13.70;;;3.80;99.90;;;;;;5079675;28;20043;-71
2022/01/15 07:45:07;;;;;;;34.13;12.02;;;3.80;99.90;;;;;;5097891;28;20020;-72
2022/01/15 07:47:35;;;;;;;35.83;13.00;;;3.80;99.90;;;;;;5097179;28;20396;-71
2022/01/15 07:50:04;;;;;;;35.33;13.85;;;3.80;99.90;;;;;;5097627;28;20031;-71
2022/01/15 07:52:31;;;;;;;36.53;12.43;;;3.80;99.90;;;;;;5097476;28;20412;-72
2022/01/15 07:55:00;;;;;;;34.25;12.95;;;3.80;99.90;;;;;;5080121;28;20024;-72
2022/01/15 07:57:28;;;;;;;30.17;11.95;;;3.80;99.90;;;;;;5080059;28;20024;-72
2022/01/15 07:59:55;;;;;;;32.72;12.00;;;3.90;99.90;;;;;;5097848;28;20024;-74
2022/01/15 08:02:22;;;;;;;34.85;12.55;;;3.80;99.90;;;;;;5098300;28;20027;-75
2022/01/15 08:04:49;;;;;;;35.53;12.20;;;3.90;99.90;;;;;;5063946;28;20016;-75
2022/01/15 08:07:18;;;;;;;32.47;14.00;;;3.90;99.90;;;;;;5080160;28;20031;-74
2022/01/15 08:09:45;;;;;;;31.13;13.00;;;3.90;99.90;;;;;;5097959;28;20032;-75
2022/01/15 08:12:12;;;;;;;34.53;13.07;;;3.90;99.90;;;;;;5098325;28;20020;-75
2022/01/15 08:14:40;;;;;;;28.65;12.20;;;3.90;99.90;;;;;;5079928;28;20024;-73
2022/01/15 08:17:08;;;;;;;33.47;12.07;;;3.90;99.90;;;;;;5097817;28;20499;-68
2022/01/15 08:19:35;;;;;;;27.38;11.68;;;4.00;99.90;;;;;;5097654;28;20051;-68
2022/01/15 08:22:02;;;;;;;39.17;14.00;;;4.00;99.90;;;;;;5080272;28;20024;-70
2022/01/15 08:24:30;;;;;;;41.03;14.88;;;4.00;99.90;;;;;;5078826;28;20031;-70
2022/01/15 08:26:58;;;;;;;32.35;14.68;;;4.00;99.90;;;;;;5096815;28;20054;-70
2022/01/15 08:29:26;;;;;;;35.92;14.77;;;4.00;99.90;;;;;;5079541;28;20024;-67
2022/01/15 08:31:53;;;;;;;29.88;12.50;;;4.00;99.90;;;;;;5097478;28;20024;-68
2022/01/15 08:34:20;;;;;;;29.30;13.30;;;4.00;99.90;;;;;;5096885;28;20298;-68
2022/01/15 08:36:47;;;;;;;29.42;11.70;;;4.10;99.90;;;;;;5096454;28;20327;-69
2022/01/15 08:39:15;;;;;;;31.83;11.75;;;4.10;99.90;;;;;;5096396;28;20027;-68
2022/01/15 08:41:48;;;;;;;26.63;10.80;;;4.10;99.90;;;;;;5096563;28;20021;-71
2022/01/15 08:44:22;;;;;;;23.08;10.82;;;4.10;99.90;;;;;;5079677;28;20024;-70
2022/01/15 08:46:50;;;;;;;31.27;11.55;;;4.10;99.90;;;;;;5097075;28;20324;-66
2022/01/15 08:49:19;;;;;;;27.63;12.18;;;4.10;99.90;;;;;;5097352;28;20032;-68
2022/01/15 08:51:46;;;;;;;31.83;12.93;;;4.20;99.90;;;;;;5079796;28;20050;-68
2022/01/15 08:54:14;;;;;;;32.00;11.50;;;4.20;99.90;;;;;;5079482;28;20028;-68
2022/01/15 08:56:41;;;;;;;32.72;12.50;;;4.20;99.90;;;;;;5062892;28;20031;-68
2022/01/15 08:59:09;;;;;;;32.72;12.75;;;4.20;99.90;;;;;;5097625;28;20021;-68
2022/01/15 09:01:36;;;;;;;31.73;13.05;;;4.30;99.90;;;;;;5097373;28;20324;-68
2022/01/15 09:04:04;;;;;;;28.05;12.48;;;4.30;99.90;;;;;;5096917;28;20020;-68
2022/01/15 09:06:32;;;;;;;29.80;12.98;;;4.40;99.90;;;;;;5096513;28;20488;-68
2022/01/15 09:09:00;;;;;;;31.63;12.35;;;4.40;99.90;;;;;;5081757;28;20027;-68
2022/01/15 09:11:27;;;;;;;28.63;13.02;;;4.40;99.90;;;;;;5100326;28;20028;-70
2022/01/15 09:13:55;;;;;;;29.98;12.55;;;4.40;99.90;;;;;;5100897;28;20020;-71
2022/01/15 09:16:23;;;;;;;26.40;12.10;;;4.50;99.90;;;;;;5083111;28;20099;-68
2022/01/15 09:18:50;;;;;;;29.98;12.68;;;4.50;99.90;;;;;;5099956;28;20047;-68
2022/01/15 09:21:17;;;;;;;30.90;13.02;;;4.60;99.90;;;;;;5082413;28;20039;-72
2022/01/15 09:23:45;;;;;;;32.40;14.18;;;4.60;99.90;;;;;;5100290;28;20016;-68
2022/01/15 09:26:23;;;;;;;27.90;12.57;;;4.60;99.90;;;;;;5100523;28;20107;-69
2022/01/15 09:31:37;;;;;;;26.90;12.57;;;4.70;99.90;;;;;;5101331;28;20050;-68
2022/01/15 09:34:04;;;;;;;28.10;13.30;;;4.70;99.90;;;;;;5101186;28;20025;-69
2022/01/15 09:36:32;;;;;;;29.50;12.35;;;4.70;99.90;;;;;;5082933;28;20018;-68
2022/01/15 09:39:00;;;;;;;27.92;11.45;;;4.80;99.90;;;;;;5082749;28;20020;-69
2022/01/15 09:41:29;;;;;;;28.10;12.15;;;4.80;99.90;;;;;;5100704;28;20028;-69
2022/01/15 09:43:56;;;;;;;27.45;12.65;;;4.80;99.90;;;;;;5082726;28;20027;-68
2022/01/15 09:46:24;;;;;;;28.50;12.32;;;4.80;99.90;;;;;;5082262;28;20016;-68
2022/01/15 09:48:51;;;;;;;26.95;13.32;;;4.90;99.90;;;;;;5100220;28;20046;-69
2022/01/15 09:51:19;;;;;;;27.90;12.35;;;4.90;99.90;;;;;;5100219;28;20023;-68
2022/01/15 09:53:47;;;;;;;24.15;11.38;;;5.00;99.90;;;;;;5081866;28;20024;-72
2022/01/15 09:56:14;;;;;;;25.25;12.10;;;5.00;99.90;;;;;;5099496;28;20380;-71
2022/01/15 09:58:41;;;;;;;27.08;11.38;;;5.10;99.90;;;;;;5081985;28;20028;-71
2022/01/15 10:01:08;;;;;;;26.23;11.77;;;5.10;99.90;;;;;;5081514;28;20024;-70
2022/01/15 10:03:35;;;;;;;25.27;11.98;;;5.20;99.90;;;;;;5065382;28;20016;-70
2022/01/15 10:06:06;;;;;;;21.17;10.65;;;5.20;99.90;;;;;;5099794;28;20027;-70
2022/01/15 10:08:33;;;;;;;23.88;10.98;;;5.20;99.90;;;;;;5081913;28;20313;-70
2022/01/15 10:11:07;;;;;;;29.65;11.65;;;5.20;99.90;;;;;;5100366;28;20073;-70
2022/01/15 10:13:44;;;;;;;21.80;10.35;;;5.30;99.90;;;;;;5099995;28;20420;-71
2022/01/15 10:16:17;;;;;;;26.33;11.48;;;5.30;99.90;;;;;;5100327;28;20058;-69
2022/01/15 10:18:47;;;;;;;21.92;11.35;;;5.40;99.90;;;;;;5099031;28;20436;-70
2022/01/15 10:21:29;;;;;;;24.60;11.20;;;5.40;99.90;;;;;;5099805;28;20077;-69
2022/01/15 10:24:00;;;;;;;25.50;11.23;;;5.40;99.90;;;;;;5100222;28;20027;-69
2022/01/15 10:26:36;;;;;;;25.48;12.05;;;5.50;99.90;;;;;;5099748;28;20035;-70
2022/01/15 10:29:07;;;;;;;21.25;10.23;;;5.50;99.90;;;;;;5082799;28;20099;-70
2022/01/15 10:31:44;;;;;;;23.90;10.52;;;5.50;99.90;;;;;;5098866;28;20039;-70
2022/01/15 10:34:29;;;;;;;23.02;10.32;;;5.60;99.90;;;;;;5098659;28;20069;-69
2022/01/15 10:37:14;;;;;;;19.70;9.85;;;5.60;99.90;;;;;;5098647;28;20028;-68
2022/01/15 10:39:58;;;;;;;24.10;11.40;;;5.70;99.90;;;;;;5098920;28;20378;-68
2022/01/15 10:42:27;;;;;;;21.60;10.07;;;5.70;99.90;;;;;;5098705;28;20024;-71
2022/01/15 10:44:59;;;;;;;22.80;10.30;;;5.80;99.90;;;;;;5080578;28;20362;-70
2022/01/15 10:47:29;;;;;;;22.90;10.05;;;5.80;99.90;;;;;;5098583;28;20372;-70
2022/01/15 10:50:02;;;;;;;21.42;9.82;;;5.80;99.90;;;;;;5099177;28;20024;-70
2022/01/15 10:52:30;;;;;;;20.30;10.20;;;5.90;99.90;;;;;;5099288;28;20024;-68
2022/01/15 10:55:06;;;;;;;20.65;11.18;;;5.90;99.90;;;;;;5099525;28;20328;-69
2022/01/15 10:57:56;;;;;;;23.02;10.68;;;6.00;99.90;;;;;;5099191;28;20080;-68
2022/01/15 11:00:28;;;;;;;19.63;9.98;;;6.00;99.90;;;;;;5099395;28;20032;-68
2022/01/15 11:03:01;;;;;;;21.92;10.73;;;6.00;99.90;;;;;;5099114;28;20085;-68
2022/01/15 11:05:35;;;;;;;20.05;10.27;;;6.00;99.90;;;;;;5099652;28;20069;-68
2022/01/15 11:08:16;;;;;;;18.13;8.27;;;6.00;99.90;;;;;;5099154;28;20438;-68
2022/01/15 11:10:52;;;;;;;18.42;9.55;;;6.00;99.90;;;;;;5099084;28;20028;-68
2022/01/15 11:13:21;;;;;;;;;;;6.10;99.90;;;;;;5098263;28;20358;-68
2022/01/15 11:15:54;;;;;;;22.15;9.70;;;6.10;99.90;;;;;;5097882;28;19904;-69
2022/01/15 11:18:25;;;;;;;19.50;9.88;;;6.10;99.90;;;;;;5097397;28;20442;-69
2022/01/15 11:20:56;;;;;;;18.42;8.90;;;6.10;99.90;;;;;;5097930;28;20028;-69
2022/01/15 11:23:26;;;;;;;16.90;8.45;;;6.10;99.90;;;;;;5097713;28;20016;-69
2022/01/15 11:25:58;;;;;;;16.92;8.60;;;6.20;99.90;;;;;;5097672;28;20028;-77
2022/01/15 11:28:30;;;;;;;16.88;8.30;;;6.20;99.90;;;;;;5079944;28;20324;-77
2022/01/15 11:31:03;;;;;;;15.82;8.57;;;6.20;99.90;;;;;;5097741;28;20020;-77
2022/01/15 11:33:42;;;;;;;15.82;7.28;;;6.30;99.90;;;;;;5098356;28;20027;-73
2022/01/15 11:36:28;;;;;;;14.93;7.03;;;6.30;99.90;;;;;;5080577;28;20500;-67
2022/01/15 11:38:57;;;;;;;18.98;8.15;;;6.30;99.90;;;;;;5098204;28;20028;-67
2022/01/15 11:41:28;;;;;;;16.17;7.95;;;6.30;99.90;;;;;;5098368;28;20101;-66
2022/01/15 11:43:57;;;;;;;13.75;7.65;;;6.20;99.90;;;;;;5098281;28;20020;-68
2022/01/15 11:46:47;;;;;;;15.40;7.65;;;6.30;99.90;;;;;;5098458;28;20095;-68
2022/01/15 11:49:44;;;;;;;16.83;8.30;;;6.30;99.90;;;;;;5098529;28;20039;-67
2022/01/15 11:52:30;;;;;;;17.45;7.85;;;6.30;99.90;;;;;;5098044;28;20316;-68
2022/01/15 11:55:05;;;;;;;10.43;5.78;;;6.40;99.90;;;;;;5097209;28;20028;-68
2022/01/15 11:57:34;;;;;;;9.75;5.10;;;6.40;99.90;;;;;;5097826;28;20100;-68
2022/01/15 12:00:06;;;;;;;10.80;6.13;;;6.30;99.90;;;;;;5097196;28;20031;-70
2022/01/15 12:02:40;;;;;;;14.57;6.07;;;6.30;99.90;;;;;;5097737;28;20035;-71
2022/01/15 12:05:17;;;;;;;9.88;4.25;;;6.30;99.90;;;;;;5096986;28;20443;-69
2022/01/15 12:07:55;;;;;;;9.57;4.20;;;6.30;99.90;;;;;;5097464;28;20031;-70
2022/01/15 12:10:47;;;;;;;5.65;3.17;;;6.30;99.90;;;;;;5097279;28;20320;-70
2022/01/15 12:13:23;;;;;;;4.60;2.85;;;6.20;99.90;;;;;;5078974;28;20078;-70
2022/01/15 12:16:24;;;;;;;6.65;2.97;;;6.20;99.90;;;;;;5097616;28;20050;-71
2022/01/15 12:18:54;;;;;;;5.38;2.72;;;6.20;99.90;;;;;;5097392;28;20047;-68
2022/01/15 12:21:46;;;;;;;4.63;2.60;;;6.20;99.90;;;;;;5079953;28;20020;-69
2022/01/15 12:24:36;;;;;;;5.93;2.85;;;6.20;99.90;;;;;;5097605;28;20029;-71
2022/01/15 12:27:11;;;;;;;5.45;3.22;;;6.20;99.90;;;;;;5097766;28;20371;-72
2022/01/15 12:29:39;;;;;;;8.55;4.35;;;6.10;99.90;;;;;;5097826;28;20081;-73
2022/01/15 12:32:07;;;;;;;7.97;3.40;;;6.10;99.90;;;;;;5097832;28;20443;-69
2022/01/15 12:34:34;;;;;;;7.97;3.67;;;6.10;99.90;;;;;;5097337;28;20036;-69
2022/01/15 12:37:02;;;;;;;7.85;4.60;;;6.10;99.90;;;;;;5096530;28;20031;-69
2022/01/15 12:39:38;;;;;;;7.15;4.15;;;6.00;99.90;;;;;;5096605;28;20297;-70
2022/01/15 12:42:07;;;;;;;7.28;4.07;;;6.00;99.90;;;;;;5095993;28;20420;-69
2022/01/15 12:44:46;;;;;;;7.35;4.10;;;6.00;99.90;;;;;;5096620;28;20028;-69
2022/01/15 12:47:15;;;;;;;7.65;3.80;;;5.90;99.90;;;;;;5078866;28;20332;-69
2022/01/15 12:49:47;;;;;;;9.02;4.25;;;5.90;99.90;;;;;;5096469;28;20052;-69
2022/01/15 12:52:21;;;;;;;7.93;4.32;;;5.90;99.90;;;;;;5096641;28;20020;-69
2022/01/15 12:54:51;;;;;;;9.00;4.50;;;5.80;99.90;;;;;;5096598;28;20376;-69
2022/01/15 12:57:45;;;;;;;9.48;4.00;;;5.80;99.90;;;;;;5096998;28;20081;-69
2022/01/15 13:00:24;;;;;;;9.75;5.10;;;5.80;99.90;;;;;;5096416;28;20020;-68
2022/01/15 13:02:57;;;;;;;9.27;5.32;;;5.80;99.90;;;;;;5079495;28;20050;-67
2022/01/15 13:05:27;;;;;;;11.35;5.20;;;5.80;99.90;;;;;;5097395;28;20036;-67
2022/01/15 13:07:56;;;;;;;9.98;4.80;;;5.70;99.90;;;;;;5097263;28;20081;-67
2022/01/15 13:10:45;;;;;;;8.77;5.13;;;5.70;99.90;;;;;;5079583;28;20024;-70
2022/01/15 13:13:20;;;;;;;9.60;4.47;;;5.70;99.90;;;;;;5097122;28;20024;-70
2022/01/15 13:15:48;;;;;;;10.00;4.85;;;5.60;99.90;;;;;;5097597;28;20020;-70
2022/01/15 13:18:17;;;;;;;10.30;5.20;;;5.60;99.90;;;;;;5074723;28;20044;-69
2022/01/15 13:20:50;;;;;;;10.95;5.20;;;5.60;99.90;;;;;;5075972;28;20031;-70
2022/01/15 13:23:20;;;;;;;11.15;5.18;;;5.60;99.90;;;;;;5075896;28;20098;-71